Time;durP1;ratioP1;P1;durP2;ratioP2;P2;SDS_P1;SDS_P2;PMS_P1;PMS_P2;Temp;Humidity;BMP_temperature;BMP_pressure;BME280_temperature;BME280_humidity;BME280_pressure;Samples;Min_cycle;Max_cycle;Signal;HPM_P1;HPM_P2
2023/06/06 00:00:39;;;;;;;0.00;0.00;;;;;;;10.51;67.85;101088.97;6108676;23;20396;-73
2023/06/06 00:03:05;;;;;;;0.00;0.00;;;;;;;10.47;67.60;101088.66;6116525;23;20006;-72
2023/06/06 00:05:31;;;;;;;0.00;0.00;;;;;;;10.46;67.87;101080.72;6144184;23;20533;-72
2023/06/06 00:07:56;;;;;;;0.00;0.00;;;;;;;10.49;67.73;101091.16;6141870;23;20013;-73
2023/06/06 00:10:22;;;;;;;0.00;0.00;;;;;;;10.43;68.07;101084.78;6095054;23;20013;-72
2023/06/06 00:12:47;;;;;;;0.00;0.00;;;;;;;10.38;67.98;101089.31;6113924;23;20013;-72
2023/06/06 00:15:15;;;;;;;0.00;0.00;;;;;;;10.28;68.35;101085.31;6144596;23;20377;-72
2023/06/06 00:17:42;;;;;;;0.00;0.00;;;;;;;10.24;68.03;101084.16;6114880;23;20324;-72
2023/06/06 00:20:09;;;;;;;0.00;0.00;;;;;;;10.19;68.25;101080.50;6117739;23;20002;-73
2023/06/06 00:22:38;;;;;;;0.00;0.00;;;;;;;10.21;68.40;101079.19;6144983;23;20535;-72
2023/06/06 00:25:04;;;;;;;0.00;0.00;;;;;;;10.18;68.33;101078.84;6114899;23;20408;-72
2023/06/06 00:27:31;;;;;;;0.00;0.00;;;;;;;10.15;68.67;101074.72;6119474;23;20058;-72
2023/06/06 00:29:57;;;;;;;0.00;0.00;;;;;;;10.16;68.87;101081.00;6114451;23;20010;-72
2023/06/06 00:32:22;;;;;;;0.00;0.00;;;;;;;10.09;68.48;101070.22;6093708;23;20101;-73
2023/06/06 00:34:48;;;;;;;0.00;0.00;;;;;;;10.04;69.02;101072.88;6144605;23;20036;-72
2023/06/06 00:37:13;;;;;;;0.00;0.00;;;;;;;10.00;69.03;101071.72;6113606;23;20095;-72
2023/06/06 00:39:39;;;;;;;0.00;0.00;;;;;;;9.96;68.98;101080.41;6117406;23;20018;-72
2023/06/06 00:42:04;;;;;;;0.00;0.00;;;;;;;9.92;69.00;101081.97;6139739;23;20528;-72
2023/06/06 00:44:30;;;;;;;0.00;0.00;;;;;;;9.86;69.34;101072.03;6145387;23;20005;-73
2023/06/06 00:46:56;;;;;;;0.00;0.00;;;;;;;9.85;69.26;101081.28;6119824;23;20005;-72
2023/06/06 00:49:25;;;;;;;0.00;0.00;;;;;;;9.79;69.52;101079.53;6142773;23;20009;-72
2023/06/06 00:51:50;;;;;;;0.00;0.00;;;;;;;9.77;69.63;101073.50;6119508;23;20025;-73
2023/06/06 00:54:18;;;;;;;0.00;0.00;;;;;;;9.75;69.74;101064.69;6115195;23;20100;-71
2023/06/06 00:56:44;;;;;;;0.00;0.00;;;;;;;9.79;69.58;101076.81;6120215;23;20012;-72
2023/06/06 00:59:11;;;;;;;0.00;0.00;;;;;;;9.72;69.52;101066.00;6141173;23;20811;-71
2023/06/06 01:01:39;;;;;;;0.00;0.00;;;;;;;9.70;69.88;101070.91;6095455;23;20066;-72
2023/06/06 01:04:07;;;;;;;0.00;0.00;;;;;;;9.63;69.90;101072.13;6142239;23;20020;-72
2023/06/06 01:06:34;;;;;;;0.10;0.10;;;;;;;9.60;70.05;101078.91;6117665;23;20011;-71
2023/06/06 01:09:04;;;;;;;0.00;0.00;;;;;;;9.50;69.93;101076.78;6146038;23;20001;-72
2023/06/06 01:11:42;;;;;;;0.00;0.00;;;;;;;9.50;70.34;101074.06;6118542;23;20088;-72
2023/06/06 01:14:31;;;;;;;0.00;0.00;;;;;;;9.40;70.46;101073.88;6145723;23;20062;-72
2023/06/06 01:17:01;;;;;;;0.10;0.10;;;;;;;9.35;70.51;101065.59;6145710;23;20028;-72
2023/06/06 01:19:29;;;;;;;0.00;0.00;;;;;;;9.32;70.95;101071.53;6116069;23;20058;-72
2023/06/06 01:21:56;;;;;;;0.00;0.00;;;;;;;9.28;70.96;101062.16;6145676;23;20006;-73
2023/06/06 01:24:24;;;;;;;0.10;0.10;;;;;;;9.26;70.75;101068.69;6117775;22;20005;-73
2023/06/06 01:26:50;;;;;;;0.00;0.00;;;;;;;9.26;71.16;101074.16;6114502;23;20025;-71
2023/06/06 01:29:15;;;;;;;0.00;0.00;;;;;;;9.23;71.25;101063.72;6120977;23;20005;-73
2023/06/06 01:31:47;;;;;;;0.00;0.00;;;;;;;9.22;71.51;101067.50;6140249;23;20017;-72
2023/06/06 01:34:28;;;;;;;0.00;0.00;;;;;;;9.18;71.53;101070.97;6144703;23;20013;-72
2023/06/06 01:37:03;;;;;;;0.00;0.00;;;;;;;9.15;72.06;101061.34;6115732;23;20092;-73
2023/06/06 01:39:31;;;;;;;0.00;0.00;;;;;;;9.17;72.04;101059.22;6144954;23;20017;-72
2023/06/06 01:41:58;;;;;;;0.00;0.00;;;;;;;9.14;71.97;101064.31;6094418;23;20092;-72
2023/06/06 01:44:25;;;;;;;0.00;0.00;;;;;;;9.08;72.31;101060.66;6145314;23;20005;-72
2023/06/06 01:46:52;;;;;;;0.00;0.00;;;;;;;9.07;72.11;101061.75;6119300;23;20066;-72
2023/06/06 01:49:17;;;;;;;0.00;0.00;;;;;;;9.06;72.51;101068.25;6117976;23;20005;-72
2023/06/06 01:51:43;;;;;;;0.00;0.00;;;;;;;9.03;72.58;101061.38;6095016;23;20017;-73
2023/06/06 01:54:09;;;;;;;0.00;0.00;;;;;;;9.05;73.01;101072.06;6116722;23;20012;-73
2023/06/06 01:56:34;;;;;;;0.00;0.00;;;;;;;8.98;72.88;101060.44;6142201;23;20016;-73
2023/06/06 01:59:00;;;;;;;0.00;0.00;;;;;;;8.96;73.20;101057.13;6119059;23;20442;-72
2023/06/06 02:01:26;;;;;;;0.00;0.00;;;;;;;8.90;73.05;101053.47;6138624;23;20051;-73
2023/06/06 02:03:52;;;;;;;0.10;0.10;;;;;;;8.89;72.93;101069.00;6144661;23;20009;-72
2023/06/06 02:06:19;;;;;;;0.00;0.00;;;;;;;8.90;73.70;101058.91;6113841;23;20039;-72
2023/06/06 02:08:44;;;;;;;0.00;0.00;;;;;;;8.87;73.35;101062.13;6144394;23;20343;-72
2023/06/06 02:11:10;;;;;;;0.00;0.00;;;;;;;8.87;73.69;101056.66;6117500;23;20013;-72
2023/06/06 02:13:35;;;;;;;0.00;0.00;;;;;;;8.78;73.88;101042.56;6111089;23;20013;-72
2023/06/06 02:16:01;;;;;;;0.00;0.00;;;;;;;8.74;73.65;101052.28;6093327;23;20010;-71
2023/06/06 02:18:26;;;;;;;0.00;0.00;;;;;;;8.67;74.32;101054.31;6113293;23;20036;-72
2023/06/06 02:20:51;;;;;;;0.10;0.10;;;;;;;8.59;74.66;101058.22;6144860;23;20383;-72
2023/06/06 02:23:19;;;;;;;0.00;0.00;;;;;;;8.53;74.34;101059.19;6114048;23;20013;-72
2023/06/06 02:25:44;;;;;;;0.00;0.00;;;;;;;8.51;74.48;101055.84;6144990;23;20039;-73
2023/06/06 02:28:11;;;;;;;0.00;0.00;;;;;;;8.44;74.65;101058.72;6143933;23;20005;-72
2023/06/06 02:30:36;;;;;;;0.00;0.00;;;;;;;8.43;74.57;101048.84;6112642;23;20150;-73
2023/06/06 02:33:02;;;;;;;0.00;0.00;;;;;;;8.43;74.84;101051.56;6119757;23;20037;-73
2023/06/06 02:35:28;;;;;;;0.00;0.00;;;;;;;8.39;75.15;101048.47;6112452;23;20009;-73
2023/06/06 02:37:54;;;;;;;0.00;0.00;;;;;;;8.42;74.69;101049.88;6118544;23;20021;-73
2023/06/06 02:40:19;;;;;;;0.00;0.00;;;;;;;8.42;75.28;101052.63;6139283;22;20043;-71
2023/06/06 02:42:45;;;;;;;0.10;0.10;;;;;;;8.37;74.86;101044.34;6143852;23;20009;-72
2023/06/06 02:45:11;;;;;;;0.00;0.00;;;;;;;8.41;74.89;101055.56;6118435;23;20010;-72
2023/06/06 02:47:36;;;;;;;0.10;0.10;;;;;;;8.45;74.64;101057.63;6138026;23;20006;-72
2023/06/06 02:50:03;;;;;;;0.00;0.00;;;;;;;8.43;75.27;101053.47;6119918;23;20010;-72
2023/06/06 02:52:31;;;;;;;0.00;0.00;;;;;;;8.43;74.81;101050.75;6098474;23;20040;-74
2023/06/06 02:54:57;;;;;;;0.00;0.00;;;;;;;8.36;75.11;101043.47;6146178;23;20084;-73
2023/06/06 02:57:22;;;;;;;0.00;0.00;;;;;;;8.39;75.14;101053.91;6089793;23;20101;-72
2023/06/06 02:59:48;;;;;;;0.00;0.00;;;;;;;8.37;74.78;101056.06;6139733;23;20043;-72
2023/06/06 03:02:15;;;;;;;0.00;0.00;;;;;;;8.35;75.09;101051.91;6092883;23;20417;-72
2023/06/06 03:04:43;;;;;;;0.00;0.00;;;;;;;8.27;74.83;101044.09;6140612;23;20009;-72
2023/06/06 03:07:12;;;;;;;0.00;0.00;;;;;;;8.29;75.36;101041.94;6114606;23;20021;-72
2023/06/06 03:09:38;;;;;;;0.00;0.00;;;;;;;8.33;75.40;101043.13;6110938;22;20041;-73
2023/06/06 03:12:04;;;;;;;0.00;0.00;;;;;;;8.44;75.21;101039.63;6142930;23;20016;-73
2023/06/06 03:14:30;;;;;;;0.00;0.00;;;;;;;8.46;74.87;101048.38;6115194;23;20368;-73
2023/06/06 03:16:56;;;;;;;0.00;0.00;;;;;;;8.46;74.47;101034.75;6143008;23;20029;-72
2023/06/06 03:19:22;;;;;;;0.00;0.00;;;;;;;8.38;74.91;101040.53;6144540;23;20344;-72
2023/06/06 03:21:47;;;;;;;0.00;0.00;;;;;;;8.49;75.01;101053.38;6112079;23;20005;-72
2023/06/06 03:24:13;;;;;;;0.00;0.00;;;;;;;8.55;74.59;101049.69;6144895;23;20072;-72
2023/06/06 03:26:39;;;;;;;0.00;0.00;;;;;;;8.62;74.31;101056.94;6112928;23;20745;-72
2023/06/06 03:29:05;;;;;;;0.00;0.00;;;;;;;8.72;74.07;101051.72;6117932;23;20012;-72
2023/06/06 03:31:31;;;;;;;0.00;0.00;;;;;;;8.86;74.31;101049.53;6139804;23;20012;-73
2023/06/06 03:33:57;;;;;;;0.00;0.00;;;;;;;8.91;73.72;101033.31;6117732;23;20113;-73
2023/06/06 03:36:23;;;;;;;0.00;0.00;;;;;;;9.11;73.65;101041.06;6142470;23;20424;-71
2023/06/06 03:38:48;;;;;;;0.00;0.00;;;;;;;9.28;73.44;101045.78;6141584;23;20028;-74
2023/06/06 03:41:14;;;;;;;0.00;0.00;;;;;;;9.44;72.99;101042.28;6142765;23;20010;-71
2023/06/06 03:43:41;;;;;;;0.00;0.00;;;;;;;9.60;72.53;101030.56;6139710;23;20084;-72
2023/06/06 03:46:07;;;;;;;0.00;0.00;;;;;;;9.79;72.33;101044.03;6115978;23;20009;-73
2023/06/06 03:48:32;;;;;;;0.00;0.00;;;;;;;9.96;72.01;101033.13;6115457;23;20019;-73
2023/06/06 03:50:57;;;;;;;0.00;0.00;;;;;;;10.13;71.86;101033.13;6116407;23;20332;-72
2023/06/06 03:53:23;;;;;;;0.00;0.00;;;;;;;10.25;71.34;101042.09;6140190;23;20013;-72
2023/06/06 03:55:48;;;;;;;0.00;0.00;;;;;;;10.24;70.78;101034.97;6114326;23;20014;-72
2023/06/06 03:58:14;;;;;;;0.00;0.00;;;;;;;10.30;70.85;101035.88;6115475;23;20328;-72
2023/06/06 04:00:39;;;;;;;0.00;0.00;;;;;;;10.41;70.92;101039.59;6143749;23;20005;-72
2023/06/06 04:03:05;;;;;;;0.00;0.00;;;;;;;10.50;70.64;101042.75;6089982;23;20037;-71
2023/06/06 04:05:32;;;;;;;0.00;0.00;;;;;;;10.62;70.39;101030.63;6092538;23;20391;-72
2023/06/06 04:07:59;;;;;;;0.00;0.00;;;;;;;10.70;70.08;101036.75;6114615;23;20005;-72
2023/06/06 04:10:25;;;;;;;0.00;0.00;;;;;;;10.72;69.66;101040.06;6142121;23;20047;-72
2023/06/06 04:12:51;;;;;;;0.00;0.00;;;;;;;10.70;69.78;101020.34;6138239;23;20025;-72
2023/06/06 04:15:16;;;;;;;0.00;0.00;;;;;;;10.78;69.63;101039.06;6142411;23;20009;-71
2023/06/06 04:17:41;;;;;;;0.00;0.00;;;;;;;10.87;69.73;101037.53;6116273;23;20013;-73
2023/06/06 04:20:08;;;;;;;0.00;0.00;;;;;;;10.95;68.76;101039.00;6093742;23;20009;-72
2023/06/06 04:22:34;;;;;;;0.00;0.00;;;;;;;11.03;69.15;101038.56;6146599;23;20021;-72
2023/06/06 04:25:00;;;;;;;0.00;0.00;;;;;;;11.08;68.81;101043.28;6141027;23;20013;-72
2023/06/06 04:27:25;;;;;;;0.00;0.00;;;;;;;11.18;68.61;101037.94;6119752;23;20123;-72
2023/06/06 04:29:51;;;;;;;0.00;0.00;;;;;;;11.23;68.46;101038.00;6116063;23;20105;-71
2023/06/06 04:32:18;;;;;;;0.00;0.00;;;;;;;11.20;68.18;101027.56;6119173;23;20012;-71
2023/06/06 04:34:45;;;;;;;0.00;0.00;;;;;;;11.27;68.09;101039.16;6143705;23;20443;-71
2023/06/06 04:37:13;;;;;;;0.00;0.00;;;;;;;11.42;67.66;101037.66;6143461;23;20016;-72
2023/06/06 04:39:39;;;;;;;0.00;0.00;;;;;;;11.50;67.39;101034.47;6146621;23;20020;-71
2023/06/06 04:42:06;;;;;;;0.00;0.00;;;;;;;11.65;67.08;101037.38;6117877;23;20067;-72
2023/06/06 04:44:33;;;;;;;0.00;0.00;;;;;;;11.69;66.93;101027.53;6142876;23;20009;-72
2023/06/06 04:47:03;;;;;;;0.00;0.00;;;;;;;11.77;66.21;101044.59;6116358;23;20029;-71
2023/06/06 04:49:35;;;;;;;0.00;0.00;;;;;;;11.81;66.11;101045.75;6146594;23;20002;-73
2023/06/06 04:52:08;;;;;;;0.00;0.00;;;;;;;11.91;66.17;101048.56;6119804;23;20093;-74
2023/06/06 04:54:38;;;;;;;0.00;0.00;;;;;;;11.95;65.88;101044.25;6118804;23;20584;-72
2023/06/06 04:57:08;;;;;;;0.00;0.00;;;;;;;12.03;65.71;101042.94;6143887;22;20005;-72
2023/06/06 04:59:35;;;;;;;0.00;0.00;;;;;;;12.10;65.39;101045.50;6116133;23;20017;-71
2023/06/06 05:02:03;;;;;;;0.00;0.00;;;;;;;12.16;64.85;101041.69;6117267;23;20333;-73
2023/06/06 05:04:32;;;;;;;0.00;0.00;;;;;;;12.27;65.06;101040.69;6142616;23;20024;-73
2023/06/06 05:06:59;;;;;;;0.00;0.00;;;;;;;12.37;64.68;101027.06;6118334;23;20033;-72
2023/06/06 05:09:24;;;;;;;0.00;0.00;;;;;;;12.50;64.31;101035.91;6113606;23;20001;-72
2023/06/06 05:11:52;;;;;;;0.00;0.00;;;;;;;12.53;63.70;101035.41;6113723;23;20058;-73
2023/06/06 05:14:24;;;;;;;0.00;0.00;;;;;;;12.58;64.00;101044.47;6143965;23;20046;-71
2023/06/06 05:16:52;;;;;;;0.00;0.00;;;;;;;12.60;63.42;101036.00;6141975;22;20439;-71
2023/06/06 05:19:18;;;;;;;0.00;0.00;;;;;;;12.65;63.49;101044.25;6118348;23;20340;-71
2023/06/06 05:21:44;;;;;;;0.00;0.00;;;;;;;12.68;62.90;101043.72;6114932;23;20009;-71
2023/06/06 05:24:09;;;;;;;0.00;0.00;;;;;;;12.83;63.10;101045.72;6119174;23;20093;-70
2023/06/06 05:26:35;;;;;;;0.00;0.00;;;;;;;12.88;62.61;101039.47;6115468;23;20009;-71
2023/06/06 05:29:00;;;;;;;0.00;0.00;;;;;;;12.97;62.03;101043.34;6119536;23;20624;-71
2023/06/06 05:31:26;;;;;;;0.00;0.00;;;;;;;13.03;61.95;101039.53;6115360;23;20013;-72
2023/06/06 05:33:52;;;;;;;0.00;0.00;;;;;;;13.17;61.44;101044.50;6118586;23;20006;-71
2023/06/06 05:36:18;;;;;;;0.00;0.00;;;;;;;13.31;61.12;101040.19;6144428;23;20051;-71
2023/06/06 05:38:43;;;;;;;0.00;0.00;;;;;;;13.43;60.76;101045.47;6116817;22;20025;-72
2023/06/06 05:41:09;;;;;;;0.00;0.00;;;;;;;13.55;60.84;101050.72;6118397;23;20421;-72
2023/06/06 05:43:34;;;;;;;0.00;0.00;;;;;;;13.60;60.28;101042.50;6142326;23;20002;-71
2023/06/06 05:46:01;;;;;;;0.00;0.00;;;;;;;13.69;60.17;101046.34;6118256;23;20005;-71
2023/06/06 05:48:27;;;;;;;0.00;0.00;;;;;;;13.79;59.53;101042.81;6143972;23;20029;-71
2023/06/06 05:50:52;;;;;;;0.00;0.00;;;;;;;13.83;58.92;101040.31;6142306;23;20051;-70
2023/06/06 05:53:18;;;;;;;0.00;0.00;;;;;;;13.84;59.01;101047.47;6118515;23;20525;-70
2023/06/06 05:55:43;;;;;;;0.00;0.00;;;;;;;13.90;58.63;101035.38;6140729;23;20440;-70
2023/06/06 05:58:09;;;;;;;0.00;0.00;;;;;;;13.96;58.59;101045.31;6119115;23;20012;-71
2023/06/06 06:00:35;;;;;;;0.00;0.00;;;;;;;14.06;58.18;101045.31;6117339;23;20001;-71
2023/06/06 06:03:01;;;;;;;0.00;0.00;;;;;;;14.25;57.83;101048.34;6140971;23;20422;-70
2023/06/06 06:05:28;;;;;;;0.00;0.00;;;;;;;14.32;57.51;101053.56;6117990;23;20005;-72
2023/06/06 06:07:59;;;;;;;0.00;0.00;;;;;;;14.40;57.19;101055.75;6116393;22;20447;-71
2023/06/06 06:10:35;;;;;;;0.00;0.00;;;;;;;14.46;57.09;101048.31;6139710;23;20005;-71
2023/06/06 06:13:02;;;;;;;0.00;0.00;;;;;;;14.48;56.67;101057.97;6138754;23;20009;-70
2023/06/06 06:15:30;;;;;;;0.00;0.00;;;;;;;14.59;56.60;101056.00;6119086;23;20067;-71
2023/06/06 06:17:55;;;;;;;0.00;0.00;;;;;;;14.76;56.36;101061.25;6138992;23;20009;-71
2023/06/06 06:20:21;;;;;;;0.00;0.00;;;;;;;14.83;55.63;101053.53;6144567;23;20027;-71
2023/06/06 06:22:47;;;;;;;0.00;0.00;;;;;;;14.97;55.24;101061.19;6117850;23;20335;-70
2023/06/06 06:25:13;;;;;;;0.00;0.00;;;;;;;15.04;55.02;101053.47;6117247;22;20022;-71
2023/06/06 06:27:39;;;;;;;0.00;0.00;;;;;;;15.25;54.74;101058.88;6141792;23;20091;-71
2023/06/06 06:30:06;;;;;;;0.00;0.00;;;;;;;15.33;54.23;101061.03;6113236;23;20014;-71
2023/06/06 06:32:32;;;;;;;0.00;0.00;;;;;;;15.38;54.03;101066.53;6093742;23;20313;-72
2023/06/06 06:34:58;;;;;;;0.00;0.00;;;;;;;15.41;53.66;101068.72;6141790;23;20013;-70
2023/06/06 06:37:23;;;;;;;0.00;0.00;;;;;;;15.52;53.64;101062.06;6144422;23;20029;-70
2023/06/06 06:39:49;;;;;;;0.00;0.00;;;;;;;15.75;52.83;101065.22;6092411;23;20005;-73
2023/06/06 06:42:16;;;;;;;0.00;0.00;;;;;;;16.03;52.71;101062.88;6141983;22;20006;-72
2023/06/06 06:44:41;;;;;;;0.00;0.00;;;;;;;16.06;52.22;101073.31;6117799;23;20033;-71
2023/06/06 06:47:06;;;;;;;0.00;0.00;;;;;;;16.13;52.20;101068.31;6140466;23;20093;-71
2023/06/06 06:49:32;;;;;;;0.00;0.00;;;;;;;16.34;52.10;101068.13;6118101;23;20085;-72
2023/06/06 06:51:58;;;;;;;0.00;0.00;;;;;;;16.44;51.72;101062.56;6116988;23;20428;-70
2023/06/06 06:54:24;;;;;;;0.00;0.00;;;;;;;16.63;51.08;101067.31;6116032;23;20009;-70
2023/06/06 06:57:23;;;;;;;;;;;;;;;;;;;;;
2023/06/06 06:59:49;;;;;;;0.00;0.00;;;;;;;16.89;50.06;101045.81;6144898;23;20381;-78
2023/06/06 07:02:44;;;;;;;0.00;0.00;;;;;;;17.18;50.04;101065.09;6143951;23;20382;-76
2023/06/06 07:05:27;;;;;;;;;;;;;;;17.29;49.04;101065.81;6134455;23;20423;-77
2023/06/06 07:07:54;;;;;;;0.00;0.00;;;;;;;17.41;48.35;101068.13;6143586;22;19954;-77
2023/06/06 07:10:23;;;;;;;0.00;0.00;;;;;;;17.62;48.14;101069.50;6145370;23;20013;-75
2023/06/06 07:12:50;;;;;;;0.00;0.00;;;;;;;17.61;47.29;101059.56;6142740;23;20242;-76
2023/06/06 07:15:19;;;;;;;0.00;0.00;;;;;;;17.63;47.22;101073.09;6094330;23;20013;-76
2023/06/06 07:17:50;;;;;;;0.00;0.00;;;;;;;17.82;46.95;101073.09;6118795;23;20006;-76
2023/06/06 07:20:21;;;;;;;0.00;0.00;;;;;;;17.94;46.42;101076.25;6120540;23;20428;-77
2023/06/06 07:22:55;;;;;;;0.00;0.00;;;;;;;18.12;46.14;101048.84;6120099;23;20042;-76
2023/06/06 07:25:21;;;;;;;0.00;0.00;;;;;;;18.36;45.80;101065.34;6122370;23;20010;-77
2023/06/06 07:27:47;;;;;;;0.00;0.00;;;;;;;18.49;45.24;101060.97;6096532;23;20092;-74
2023/06/06 07:30:12;;;;;;;0.00;0.00;;;;;;;18.55;44.90;101076.38;6119794;23;20051;-76
2023/06/06 07:32:49;;;;;;;0.00;0.00;;;;;;;18.93;44.92;101073.47;6096678;23;20095;-76
2023/06/06 07:35:19;;;;;;;0.00;0.00;;;;;;;19.08;44.24;101057.69;6117971;23;20001;-75
2023/06/06 07:38:23;;;;;;;0.00;0.00;;;;;;;19.56;43.42;101068.31;6137857;23;20045;-75
2023/06/06 08:04:48;;;;;;;0.00;0.00;;;;;;;20.79;40.40;101069.25;6126694;23;20001;-76
2023/06/06 08:07:15;;;;;;;0.00;0.00;;;;;;;20.77;39.78;101064.03;6118769;23;20123;-76
2023/06/06 08:09:43;;;;;;;0.00;0.00;;;;;;;20.75;39.54;101086.56;6118269;23;20388;-76
2023/06/06 08:12:09;;;;;;;0.00;0.00;;;;;;;20.77;39.33;101071.56;6146730;23;20005;-76
2023/06/06 08:14:38;;;;;;;0.00;0.00;;;;;;;21.13;39.36;101087.22;6117000;23;20071;-75
2023/06/06 08:17:05;;;;;;;0.00;0.00;;;;;;;21.21;38.86;101076.13;6119521;23;20028;-78
2023/06/06 08:19:31;;;;;;;0.00;0.00;;;;;;;21.31;38.37;101085.31;6144368;23;20006;-76
2023/06/06 08:21:56;;;;;;;0.00;0.00;;;;;;;21.29;38.33;101088.44;6147752;23;20076;-76
2023/06/06 08:24:22;;;;;;;0.00;0.00;;;;;;;21.44;38.40;101090.75;6121258;23;20005;-76
2023/06/06 08:26:47;;;;;;;0.00;0.00;;;;;;;21.44;38.42;101062.94;6119321;23;20009;-78
2023/06/06 08:29:14;;;;;;;0.00;0.00;;;;;;;21.48;38.16;101073.41;6072798;23;20097;-77
2023/06/06 08:31:40;;;;;;;0.00;0.00;;;;;;;21.76;37.79;101080.34;6118183;23;20009;-76
2023/06/06 08:34:06;;;;;;;0.00;0.00;;;;;;;22.04;37.30;101082.81;6119426;23;20028;-75
2023/06/06 08:36:32;;;;;;;0.00;0.00;;;;;;;22.11;36.90;101074.78;6117224;23;20063;-77
2023/06/06 08:39:01;;;;;;;0.00;0.00;;;;;;;22.20;36.60;101060.06;6118066;23;20029;-77
2023/06/06 08:41:27;;;;;;;0.00;0.00;;;;;;;22.64;36.89;101075.53;6121248;23;20016;-77
2023/06/06 08:43:56;;;;;;;0.00;0.00;;;;;;;23.09;36.00;101090.97;6140853;23;20010;-77
2023/06/06 08:46:24;;;;;;;0.00;0.00;;;;;;;23.14;35.03;101092.78;6223605;22;20009;-77
2023/06/06 08:48:51;;;;;;;0.00;0.00;;;;;;;23.05;35.56;101078.84;6117829;23;20006;-76
2023/06/06 08:51:17;;;;;;;0.00;0.00;;;;;;;23.02;34.91;101076.72;6118871;23;20035;-77
2023/06/06 08:53:43;;;;;;;0.00;0.00;;;;;;;22.69;35.68;101102.41;6118070;23;20010;-76
2023/06/06 08:56:13;;;;;;;0.00;0.00;;;;;;;22.59;35.84;101066.53;6143271;23;20005;-76
2023/06/06 08:58:39;;;;;;;0.00;0.00;;;;;;;22.66;35.46;101078.00;6117850;23;20014;-78
2023/06/06 09:01:07;;;;;;;0.00;0.00;;;;;;;22.53;35.69;101084.59;6092566;23;20036;-77
2023/06/06 09:03:35;;;;;;;0.00;0.00;;;;;;;22.55;35.96;101074.75;6121878;22;20005;-76
2023/06/06 09:06:01;;;;;;;0.00;0.00;;;;;;;22.49;35.88;101074.09;6141147;23;20005;-76
2023/06/06 09:08:26;;;;;;;0.00;0.00;;;;;;;22.51;36.16;101075.75;6120079;23;20655;-76
2023/06/06 09:10:51;;;;;;;0.00;0.00;;;;;;;22.46;36.07;101073.97;6122042;23;20005;-79
2023/06/06 09:13:17;;;;;;;0.00;0.00;;;;;;;22.45;36.04;101077.91;6117569;23;20779;-77
2023/06/06 09:15:47;;;;;;;0.00;0.00;;;;;;;22.34;35.92;101094.16;6119606;23;20491;-78
2023/06/06 09:18:16;;;;;;;0.00;0.00;;;;;;;22.01;36.74;101086.25;6142492;23;20055;-77
2023/06/06 09:20:43;;;;;;;0.00;0.00;;;;;;;21.80;36.99;101094.47;6147437;23;20024;-76
2023/06/06 09:23:14;;;;;;;0.00;0.00;;;;;;;21.38;37.40;101064.22;6115693;23;20163;-77
2023/06/06 09:25:44;;;;;;;0.00;0.00;;;;;;;21.55;37.39;101084.91;6116247;23;20615;-76
2023/06/06 09:28:09;;;;;;;0.00;0.00;;;;;;;21.90;36.96;101073.81;6089634;23;20096;-78
2023/06/06 09:30:35;;;;;;;0.00;0.00;;;;;;;22.11;37.03;101090.69;6118607;23;20037;-77
2023/06/06 09:33:09;;;;;;;0.00;0.00;;;;;;;22.16;36.54;101092.50;6114757;23;20037;-76
2023/06/06 09:35:35;;;;;;;;;;;;;;;22.25;36.44;101098.88;6119464;23;19998;-78
2023/06/06 09:38:18;;;;;;;0.00;0.00;;;;;;;22.57;35.87;101080.00;6145263;23;19995;-76
2023/06/06 09:40:52;;;;;;;0.00;0.00;;;;;;;22.70;35.13;101072.59;6143846;23;20005;-77
2023/06/06 09:43:26;;;;;;;0.00;0.00;;;;;;;22.92;35.17;101077.91;6117769;23;20437;-77
2023/06/06 09:45:54;;;;;;;0.00;0.00;;;;;;;23.12;34.71;101093.09;6146130;23;20001;-76
2023/06/06 09:48:23;;;;;;;0.00;0.00;;;;;;;23.20;34.55;101085.03;6147220;23;20108;-77
2023/06/06 09:50:52;;;;;;;0.00;0.00;;;;;;;23.07;34.68;101067.34;6119245;23;20013;-76
2023/06/06 09:53:17;;;;;;;0.00;0.00;;;;;;;23.36;35.21;101086.09;6121249;23;20059;-78
2023/06/06 09:55:44;;;;;;;0.00;0.00;;;;;;;23.52;34.60;101078.78;6096218;23;20010;-76
2023/06/06 09:58:16;;;;;;;0.00;0.00;;;;;;;23.47;34.46;101090.13;6148192;23;20013;-75
2023/06/06 10:00:45;;;;;;;0.00;0.00;;;;;;;23.35;34.65;101081.69;6095016;23;20936;-77
2023/06/06 10:03:16;;;;;;;0.00;0.00;;;;;;;23.39;34.67;101092.97;6119573;23;20013;-78
2023/06/06 10:05:48;;;;;;;0.00;0.00;;;;;;;23.10;34.77;101078.69;6122101;22;20017;-78
2023/06/06 10:08:18;;;;;;;0.00;0.00;;;;;;;22.88;35.18;101078.91;6145559;23;20001;-77
2023/06/06 10:10:49;;;;;;;0.00;0.00;;;;;;;22.67;35.33;101093.56;6148139;23;20486;-76
2023/06/06 10:13:22;;;;;;;0.00;0.00;;;;;;;22.79;35.95;101099.28;6119316;23;20425;-76
2023/06/06 10:15:48;;;;;;;0.00;0.00;;;;;;;23.60;34.68;101087.44;6121414;23;20087;-74
2023/06/06 10:18:15;;;;;;;0.00;0.00;;;;;;;24.22;34.03;101091.41;6095577;23;20006;-77
2023/06/06 10:20:41;;;;;;;0.00;0.00;;;;;;;24.33;33.78;101097.38;6145856;23;19997;-76
2023/06/06 10:23:07;;;;;;;0.00;0.00;;;;;;;24.29;33.25;101079.66;6116584;23;20040;-76
2023/06/06 10:25:35;;;;;;;0.00;0.00;;;;;;;24.56;33.14;101089.41;6096174;23;20532;-76
2023/06/06 10:28:17;;;;;;;0.00;0.00;;;;;;;25.02;32.87;101083.81;6116900;23;20062;-79
2023/06/06 10:30:42;;;;;;;0.00;0.00;;;;;;;25.15;31.62;101088.25;6147269;23;20008;-77
2023/06/06 10:33:21;;;;;;;0.00;0.00;;;;;;;25.76;31.48;101078.19;6143782;23;20084;-77
2023/06/06 10:35:50;;;;;;;0.00;0.00;;;;;;;26.41;30.86;101074.44;6120332;23;20424;-77
2023/06/06 10:38:16;;;;;;;0.00;0.00;;;;;;;26.80;30.44;101071.91;6143432;23;20096;-79
2023/06/06 10:40:55;;;;;;;0.00;0.00;;;;;;;26.86;29.49;101081.66;6120851;23;20364;-77
2023/06/06 10:43:44;;;;;;;0.00;0.00;;;;;;;27.25;29.48;101084.63;6116198;22;20004;-77
2023/06/06 10:46:10;;;;;;;0.00;0.00;;;;;;;27.39;28.87;101083.38;6118872;22;20092;-75
2023/06/06 10:48:43;;;;;;;0.00;0.00;;;;;;;27.10;28.83;101071.41;6117797;23;20001;-78
2023/06/06 10:51:24;;;;;;;0.00;0.00;;;;;;;26.62;29.44;101072.22;6120324;23;20083;-76
2023/06/06 10:54:17;;;;;;;0.00;0.00;;;;;;;26.53;29.53;101085.56;6118888;23;20092;-77
2023/06/06 10:56:56;;;;;;;0.00;0.00;;;;;;;27.33;29.07;101086.44;6145650;23;20009;-77
2023/06/06 10:59:27;;;;;;;0.00;0.00;;;;;;;28.03;28.05;101084.81;6117597;23;20381;-76
2023/06/06 11:01:57;;;;;;;0.00;0.00;;;;;;;28.06;27.69;101062.78;6119161;23;20005;-76
2023/06/06 11:04:24;;;;;;;0.00;0.00;;;;;;;29.27;26.77;101063.34;6092086;23;20010;-77
2023/06/06 11:07:00;;;;;;;0.00;0.00;;;;;;;29.52;26.00;101077.78;6119365;23;20013;-78
2023/06/06 11:09:31;;;;;;;0.00;0.00;;;;;;;29.88;25.52;101080.34;6117217;23;20455;-75
2023/06/06 11:12:16;;;;;;;0.00;0.00;;;;;;;31.29;24.63;101082.56;6144586;23;20322;-75
2023/06/06 11:14:58;;;;;;;0.00;0.00;;;;;;;30.70;24.31;101065.53;6114730;23;20014;-75
2023/06/06 11:17:43;;;;;;;0.00;0.00;;;;;;;29.81;24.77;101074.56;6119824;23;20010;-76
2023/06/06 11:20:17;;;;;;;0.00;0.00;;;;;;;29.73;25.34;101082.94;6116695;23;20001;-77
2023/06/06 11:23:01;;;;;;;;;;;;;;;;;;;;;
2023/06/06 11:25:37;;;;;;;0.00;0.00;;;;;;;30.38;25.31;101089.38;6121574;23;20387;-76
2023/06/06 11:28:26;;;;;;;;;;;;;;;;;;;;;
2023/06/06 11:31:06;;;;;;;;;;;;;;;;;;;;;
2023/06/06 11:36:53;;;;;;;0.00;0.00;;;;;;;35.53;20.82;101025.44;6148246;23;20009;-75
2023/06/06 11:39:30;;;;;;;0.00;0.00;;;;;;;35.57;18.90;101041.25;6114240;23;20463;-76
2023/06/06 11:42:27;;;;;;;;;;;;;;;;;;;;;
2023/06/06 11:45:20;;;;;;;0.00;0.00;;;;;;;35.46;18.93;101018.59;6115506;23;20096;-76
2023/06/06 11:47:51;;;;;;;0.00;0.00;;;;;;;36.00;18.63;101025.69;6090100;23;20001;-76
2023/06/06 11:50:29;;;;;;;0.00;0.00;;;;;;;36.30;18.17;101038.28;6086476;23;20085;-77
2023/06/06 11:53:05;;;;;;;;;;;;;;;;;;;;;
2023/06/06 11:55:48;;;;;;;0.00;0.00;;;;;;;40.10;15.75;101020.66;6086746;23;20034;-77
2023/06/06 11:58:40;;;;;;;0.00;0.00;;;;;;;39.99;15.31;101043.88;6116200;23;20013;-77
2023/06/06 12:01:29;;;;;;;0.00;0.00;;;;;;;38.46;16.37;101050.47;6113363;23;20077;-77
2023/06/06 12:04:33;;;;;;;0.00;0.00;;;;;;;41.57;14.92;101045.56;6106899;22;20013;-78
2023/06/06 12:07:13;;;;;;;;;;;;;;;;;;;;;
2023/06/06 12:10:16;;;;;;;0.00;0.00;;;;;;;45.18;12.25;101007.88;6114742;23;20393;-76
2023/06/06 12:12:55;;;;;;;;;;;;;;;;;;;;;
2023/06/06 12:15:21;;;;;;;0.00;0.00;;;;;;;50.18;9.14;101010.97;6117117;23;20084;-75